Fort Worth Nas Jrb/Carswell field
KNFW : now visible

Airfield :











YOU CAN JOIN US ON...

 
LOGIN :

Register | Disclaimer

   EN    FR    IT 

 









Legend :    VFR   Marginal VFR   IFR   Intensive IFR   Very Intensive IFR
Visi :
Ceiling :
>= 8 km
>= 3000ft
5 to 8 km
1000 to 3000 ft
1500m to 5 km
500 to 1000 ft
800 to 1500m
200 to 500 ft
< 800m
< 200 ft
Symbols :   Thunderstorms  Fog  Heavy snow  Heavy precipitations  Wind > 20 kt






- Airport Elevation : 650 ft


KNFW - Fort Worth Nas Jrb/Carswell field

CURRENT METAR :
  • 221352Z 02012KT 10SM OVC030 16/08 A3028 RMK AO2 SLP234 T01610078 $

EXPIRED METARs :
  • 221252Z 36017G23KT 10SM OVC030 16/08 A3024 RMK AO2 SLP221 T01610078 $
  • 221152Z 01016G23KT 10SM OVC036 17/09 A3022 RMK SLP217 T01720085 51026

TAF TAF KNFW
Valid from the 22 at 07:00 until the 23 at 07:00 UTC


2207/2307 01018G28KT 9999 OVC050 520009 520909 QNH3010INS
FM221000 01010KT 9999 SCT022 OVC040 500000 QNH3019INS
FM222100 04008KT 9999 FEW040 BKN050 QNH3009INS
FM230600 VRB06KT 9999 SCT020 BKN030 QNH3009INS AUTOMATED SENSOR METWATCH 2207 TIL 2211 T16/2212Z T20/2218Z FN00232
KZFW FIR / North America



MET'MAP, your aeronautical weather chart ! - Copyright ORBIFLY December 2007 - Disclaimer

ORBIFLY MET'MAP TEAM :

Programming & Development : Alexandra Zaïnal
Original concept : Baudouin d'Aumeries
Technical & hardware support : Manuel Goepfert
Assistance : Marc-Olivier Méhu

Contact : metmap@orbifly.com




SOURCES & CREDITS :

   NOAA       Earth
Advisory